sensor_id;sensor_type;location;lat;lon;timestamp;P1;durP1;ratioP1;P2;durP2;ratioP2
62401;SDS011;48440;51.224;22.506;2023-02-10T00:00:54;26.40;;;13.68;;
62401;SDS011;48440;51.224;22.506;2023-02-10T00:03:20;26.92;;;14.27;;
62401;SDS011;48440;51.224;22.506;2023-02-10T00:05:45;25.42;;;14.93;;
62401;SDS011;48440;51.224;22.506;2023-02-10T00:08:11;28.38;;;14.15;;
62401;SDS011;48440;51.224;22.506;2023-02-10T00:10:37;28.35;;;14.98;;
62401;SDS011;48440;51.224;22.506;2023-02-10T00:13:02;26.08;;;14.70;;
62401;SDS011;48440;51.224;22.506;2023-02-10T00:15:28;28.35;;;15.13;;
62401;SDS011;48440;51.224;22.506;2023-02-10T00:17:53;24.83;;;14.00;;
62401;SDS011;48440;51.224;22.506;2023-02-10T00:20:18;28.10;;;14.52;;
62401;SDS011;48440;51.224;22.506;2023-02-10T00:22:44;27.10;;;14.52;;
62401;SDS011;48440;51.224;22.506;2023-02-10T00:25:09;28.50;;;14.05;;
62401;SDS011;48440;51.224;22.506;2023-02-10T00:27:35;27.88;;;14.85;;
62401;SDS011;48440;51.224;22.506;2023-02-10T00:30:00;31.33;;;15.13;;
62401;SDS011;48440;51.224;22.506;2023-02-10T00:32:26;29.83;;;15.10;;
62401;SDS011;48440;51.224;22.506;2023-02-10T00:34:51;29.70;;;14.35;;
62401;SDS011;48440;51.224;22.506;2023-02-10T00:37:17;27.80;;;14.68;;
62401;SDS011;48440;51.224;22.506;2023-02-10T00:39:42;31.10;;;14.80;;
62401;SDS011;48440;51.224;22.506;2023-02-10T00:42:08;28.10;;;14.77;;
62401;SDS011;48440;51.224;22.506;2023-02-10T00:44:33;24.15;;;14.25;;
62401;SDS011;48440;51.224;22.506;2023-02-10T00:46:59;31.08;;;15.95;;
62401;SDS011;48440;51.224;22.506;2023-02-10T00:49:24;30.65;;;15.75;;
62401;SDS011;48440;51.224;22.506;2023-02-10T00:51:49;28.60;;;14.13;;
62401;SDS011;48440;51.224;22.506;2023-02-10T00:54:15;30.48;;;15.18;;
62401;SDS011;48440;51.224;22.506;2023-02-10T00:56:40;26.52;;;15.18;;
62401;SDS011;48440;51.224;22.506;2023-02-10T00:59:06;28.05;;;14.32;;
62401;SDS011;48440;51.224;22.506;2023-02-10T01:01:31;26.42;;;14.07;;
62401;SDS011;48440;51.224;22.506;2023-02-10T01:03:57;31.50;;;14.50;;
62401;SDS011;48440;51.224;22.506;2023-02-10T01:06:22;28.05;;;15.07;;
62401;SDS011;48440;51.224;22.506;2023-02-10T01:08:48;29.45;;;15.45;;
62401;SDS011;48440;51.224;22.506;2023-02-10T01:11:14;28.50;;;15.00;;
62401;SDS011;48440;51.224;22.506;2023-02-10T01:13:40;26.92;;;14.80;;
62401;SDS011;48440;51.224;22.506;2023-02-10T01:16:08;30.55;;;15.23;;
62401;SDS011;48440;51.224;22.506;2023-02-10T01:18:37;27.85;;;14.27;;
62401;SDS011;48440;51.224;22.506;2023-02-10T01:21:10;27.08;;;14.05;;
62401;SDS011;48440;51.224;22.506;2023-02-10T01:23:38;28.73;;;14.32;;
62401;SDS011;48440;51.224;22.506;2023-02-10T01:26:04;31.13;;;15.50;;
62401;SDS011;48440;51.224;22.506;2023-02-10T01:28:29;27.45;;;13.70;;
62401;SDS011;48440;51.224;22.506;2023-02-10T01:30:55;28.45;;;15.45;;
62401;SDS011;48440;51.224;22.506;2023-02-10T01:33:20;32.40;;;15.85;;
62401;SDS011;48440;51.224;22.506;2023-02-10T01:35:45;31.23;;;15.23;;
62401;SDS011;48440;51.224;22.506;2023-02-10T01:38:11;29.25;;;15.30;;
62401;SDS011;48440;51.224;22.506;2023-02-10T01:40:36;28.40;;;14.48;;
62401;SDS011;48440;51.224;22.506;2023-02-10T01:43:02;28.35;;;15.20;;
62401;SDS011;48440;51.224;22.506;2023-02-10T01:45:35;29.85;;;14.52;;
62401;SDS011;48440;51.224;22.506;2023-02-10T01:48:02;33.30;;;15.90;;
62401;SDS011;48440;51.224;22.506;2023-02-10T01:50:30;30.33;;;15.40;;
62401;SDS011;48440;51.224;22.506;2023-02-10T01:53:01;24.38;;;14.55;;
62401;SDS011;48440;51.224;22.506;2023-02-10T01:55:28;29.48;;;14.25;;
62401;SDS011;48440;51.224;22.506;2023-02-10T01:57:59;30.13;;;14.35;;
62401;SDS011;48440;51.224;22.506;2023-02-10T02:00:30;25.73;;;14.07;;
62401;SDS011;48440;51.224;22.506;2023-02-10T02:02:56;31.05;;;14.77;;
62401;SDS011;48440;51.224;22.506;2023-02-10T02:07:54;29.85;;;14.23;;
62401;SDS011;48440;51.224;22.506;2023-02-10T02:10:20;27.25;;;14.23;;
62401;SDS011;48440;51.224;22.506;2023-02-10T02:13:01;30.58;;;13.32;;
62401;SDS011;48440;51.224;22.506;2023-02-10T02:15:37;25.30;;;13.30;;
62401;SDS011;48440;51.224;22.506;2023-02-10T02:31:39;25.98;;;14.38;;
62401;SDS011;48440;51.224;22.506;2023-02-10T02:34:10;24.30;;;13.63;;
62401;SDS011;48440;51.224;22.506;2023-02-10T02:36:41;25.17;;;12.75;;
62401;SDS011;48440;51.224;22.506;2023-02-10T02:39:19;26.77;;;12.63;;
62401;SDS011;48440;51.224;22.506;2023-02-10T02:41:47;23.00;;;12.07;;
62401;SDS011;48440;51.224;22.506;2023-02-10T02:44:12;22.95;;;12.63;;
62401;SDS011;48440;51.224;22.506;2023-02-10T02:47:00;28.85;;;13.90;;
62401;SDS011;48440;51.224;22.506;2023-02-10T02:49:26;24.83;;;13.68;;
62401;SDS011;48440;51.224;22.506;2023-02-10T02:52:09;26.58;;;13.48;;
62401;SDS011;48440;51.224;22.506;2023-02-10T03:00:05;27.92;;;12.93;;
62401;SDS011;48440;51.224;22.506;2023-02-10T03:02:48;29.45;;;13.45;;
62401;SDS011;48440;51.224;22.506;2023-02-10T03:05:18;24.50;;;12.80;;
62401;SDS011;48440;51.224;22.506;2023-02-10T03:07:46;25.80;;;14.32;;
62401;SDS011;48440;51.224;22.506;2023-02-10T03:10:12;27.85;;;13.35;;
62401;SDS011;48440;51.224;22.506;2023-02-10T03:12:38;25.42;;;13.55;;
62401;SDS011;48440;51.224;22.506;2023-02-10T03:15:03;30.58;;;13.48;;
62401;SDS011;48440;51.224;22.506;2023-02-10T03:17:29;28.08;;;13.32;;
62401;SDS011;48440;51.224;22.506;2023-02-10T03:19:54;29.23;;;14.43;;
62401;SDS011;48440;51.224;22.506;2023-02-10T03:22:19;26.67;;;13.70;;
62401;SDS011;48440;51.224;22.506;2023-02-10T03:24:45;31.73;;;14.80;;
62401;SDS011;48440;51.224;22.506;2023-02-10T03:27:10;29.83;;;14.05;;
62401;SDS011;48440;51.224;22.506;2023-02-10T03:29:36;29.55;;;14.88;;
62401;SDS011;48440;51.224;22.506;2023-02-10T03:32:01;25.50;;;14.55;;
62401;SDS011;48440;51.224;22.506;2023-02-10T03:34:28;29.35;;;13.90;;
62401;SDS011;48440;51.224;22.506;2023-02-10T03:36:54;28.08;;;14.55;;
62401;SDS011;48440;51.224;22.506;2023-02-10T03:39:19;29.88;;;14.15;;
62401;SDS011;48440;51.224;22.506;2023-02-10T03:41:45;31.08;;;15.43;;
62401;SDS011;48440;51.224;22.506;2023-02-10T03:44:10;33.47;;;13.93;;
62401;SDS011;48440;51.224;22.506;2023-02-10T03:46:36;29.05;;;14.77;;
62401;SDS011;48440;51.224;22.506;2023-02-10T03:49:02;26.80;;;14.20;;
62401;SDS011;48440;51.224;22.506;2023-02-10T03:51:28;28.83;;;14.60;;
62401;SDS011;48440;51.224;22.506;2023-02-10T03:53:54;30.08;;;15.20;;
62401;SDS011;48440;51.224;22.506;2023-02-10T03:56:19;31.42;;;15.07;;
62401;SDS011;48440;51.224;22.506;2023-02-10T03:58:45;28.92;;;14.52;;
62401;SDS011;48440;51.224;22.506;2023-02-10T04:01:12;28.92;;;16.08;;
62401;SDS011;48440;51.224;22.506;2023-02-10T04:03:38;28.08;;;13.75;;
62401;SDS011;48440;51.224;22.506;2023-02-10T04:06:04;27.60;;;14.55;;
62401;SDS011;48440;51.224;22.506;2023-02-10T04:08:30;30.13;;;15.63;;
62401;SDS011;48440;51.224;22.506;2023-02-10T04:10:55;30.45;;;15.38;;
62401;SDS011;48440;51.224;22.506;2023-02-10T04:13:21;30.20;;;15.10;;
62401;SDS011;48440;51.224;22.506;2023-02-10T04:15:46;27.63;;;15.02;;
62401;SDS011;48440;51.224;22.506;2023-02-10T04:18:13;30.70;;;14.88;;
62401;SDS011;48440;51.224;22.506;2023-02-10T04:20:38;31.13;;;14.07;;
62401;SDS011;48440;51.224;22.506;2023-02-10T04:23:04;27.15;;;14.55;;
62401;SDS011;48440;51.224;22.506;2023-02-10T04:25:29;31.05;;;16.48;;
62401;SDS011;48440;51.224;22.506;2023-02-10T04:27:54;26.75;;;15.02;;
62401;SDS011;48440;51.224;22.506;2023-02-10T04:30:20;30.10;;;15.52;;
62401;SDS011;48440;51.224;22.506;2023-02-10T04:32:45;34.78;;;15.40;;
62401;SDS011;48440;51.224;22.506;2023-02-10T04:35:11;27.55;;;14.23;;
62401;SDS011;48440;51.224;22.506;2023-02-10T04:37:36;28.20;;;14.27;;
62401;SDS011;48440;51.224;22.506;2023-02-10T04:40:02;30.02;;;16.05;;
62401;SDS011;48440;51.224;22.506;2023-02-10T04:42:27;25.02;;;13.32;;
62401;SDS011;48440;51.224;22.506;2023-02-10T04:44:56;33.40;;;15.63;;
62401;SDS011;48440;51.224;22.506;2023-02-10T04:47:24;26.45;;;15.07;;
62401;SDS011;48440;51.224;22.506;2023-02-10T04:49:50;28.58;;;14.90;;
62401;SDS011;48440;51.224;22.506;2023-02-10T04:52:15;29.15;;;14.73;;
62401;SDS011;48440;51.224;22.506;2023-02-10T04:54:41;28.02;;;14.02;;
62401;SDS011;48440;51.224;22.506;2023-02-10T04:57:06;28.65;;;14.45;;
62401;SDS011;48440;51.224;22.506;2023-02-10T04:59:32;29.42;;;14.80;;
62401;SDS011;48440;51.224;22.506;2023-02-10T05:01:57;27.73;;;14.80;;
62401;SDS011;48440;51.224;22.506;2023-02-10T05:04:22;26.75;;;14.52;;
62401;SDS011;48440;51.224;22.506;2023-02-10T05:06:48;30.17;;;14.38;;
62401;SDS011;48440;51.224;22.506;2023-02-10T05:09:13;30.85;;;14.07;;
62401;SDS011;48440;51.224;22.506;2023-02-10T05:11:39;27.20;;;13.98;;
62401;SDS011;48440;51.224;22.506;2023-02-10T05:14:04;28.63;;;15.23;;
62401;SDS011;48440;51.224;22.506;2023-02-10T05:16:30;25.27;;;14.15;;
62401;SDS011;48440;51.224;22.506;2023-02-10T05:18:55;31.70;;;14.18;;
62401;SDS011;48440;51.224;22.506;2023-02-10T05:21:20;33.88;;;15.18;;
62401;SDS011;48440;51.224;22.506;2023-02-10T05:23:46;30.50;;;15.00;;
62401;SDS011;48440;51.224;22.506;2023-02-10T05:26:11;26.13;;;14.60;;
62401;SDS011;48440;51.224;22.506;2023-02-10T05:28:37;29.30;;;13.93;;
62401;SDS011;48440;51.224;22.506;2023-02-10T05:31:02;26.90;;;13.82;;
62401;SDS011;48440;51.224;22.506;2023-02-10T05:33:31;25.75;;;12.90;;
62401;SDS011;48440;51.224;22.506;2023-02-10T05:35:59;25.63;;;13.60;;
62401;SDS011;48440;51.224;22.506;2023-02-10T05:38:24;26.55;;;13.25;;
62401;SDS011;48440;51.224;22.506;2023-02-10T05:40:51;25.08;;;13.45;;
62401;SDS011;48440;51.224;22.506;2023-02-10T05:43:17;25.13;;;13.85;;
62401;SDS011;48440;51.224;22.506;2023-02-10T05:45:42;24.48;;;12.68;;
62401;SDS011;48440;51.224;22.506;2023-02-10T05:48:10;26.77;;;14.18;;
62401;SDS011;48440;51.224;22.506;2023-02-10T05:50:36;27.10;;;13.77;;
62401;SDS011;48440;51.224;22.506;2023-02-10T05:53:02;28.35;;;14.68;;
62401;SDS011;48440;51.224;22.506;2023-02-10T05:55:27;31.83;;;14.32;;
62401;SDS011;48440;51.224;22.506;2023-02-10T05:57:52;27.88;;;13.60;;
62401;SDS011;48440;51.224;22.506;2023-02-10T06:00:18;27.80;;;14.60;;
62401;SDS011;48440;51.224;22.506;2023-02-10T06:02:43;28.98;;;13.57;;
62401;SDS011;48440;51.224;22.506;2023-02-10T06:05:09;21.55;;;12.48;;
62401;SDS011;48440;51.224;22.506;2023-02-10T06:07:35;27.17;;;13.63;;
62401;SDS011;48440;51.224;22.506;2023-02-10T06:10:00;28.15;;;14.13;;
62401;SDS011;48440;51.224;22.506;2023-02-10T06:12:25;27.10;;;13.35;;
62401;SDS011;48440;51.224;22.506;2023-02-10T06:14:51;26.30;;;13.35;;
62401;SDS011;48440;51.224;22.506;2023-02-10T06:17:16;24.38;;;12.85;;
62401;SDS011;48440;51.224;22.506;2023-02-10T06:19:42;25.70;;;13.13;;
62401;SDS011;48440;51.224;22.506;2023-02-10T06:22:08;27.35;;;13.13;;
62401;SDS011;48440;51.224;22.506;2023-02-10T06:24:35;26.33;;;14.10;;
62401;SDS011;48440;51.224;22.506;2023-02-10T06:27:00;25.63;;;13.80;;
62401;SDS011;48440;51.224;22.506;2023-02-10T06:29:26;27.42;;;13.68;;
62401;SDS011;48440;51.224;22.506;2023-02-10T06:31:51;28.70;;;13.65;;
62401;SDS011;48440;51.224;22.506;2023-02-10T06:34:17;29.13;;;14.05;;
62401;SDS011;48440;51.224;22.506;2023-02-10T06:36:43;25.48;;;13.38;;
62401;SDS011;48440;51.224;22.506;2023-02-10T06:39:08;29.45;;;14.85;;
62401;SDS011;48440;51.224;22.506;2023-02-10T06:41:33;29.13;;;14.57;;
62401;SDS011;48440;51.224;22.506;2023-02-10T06:43:59;30.67;;;14.80;;
62401;SDS011;48440;51.224;22.506;2023-02-10T06:46:25;31.90;;;15.15;;
62401;SDS011;48440;51.224;22.506;2023-02-10T06:48:50;30.42;;;13.45;;
62401;SDS011;48440;51.224;22.506;2023-02-10T06:51:16;30.90;;;13.27;;
62401;SDS011;48440;51.224;22.506;2023-02-10T06:53:42;27.02;;;12.90;;
62401;SDS011;48440;51.224;22.506;2023-02-10T06:56:08;28.92;;;13.45;;
62401;SDS011;48440;51.224;22.506;2023-02-10T06:58:33;22.40;;;12.95;;
62401;SDS011;48440;51.224;22.506;2023-02-10T07:00:59;25.30;;;12.88;;
62401;SDS011;48440;51.224;22.506;2023-02-10T07:03:26;21.25;;;11.90;;
62401;SDS011;48440;51.224;22.506;2023-02-10T07:05:51;23.33;;;11.98;;
62401;SDS011;48440;51.224;22.506;2023-02-10T07:08:17;21.40;;;11.68;;
62401;SDS011;48440;51.224;22.506;2023-02-10T07:10:42;21.25;;;11.57;;
62401;SDS011;48440;51.224;22.506;2023-02-10T07:13:08;25.50;;;12.60;;
62401;SDS011;48440;51.224;22.506;2023-02-10T07:15:33;23.73;;;11.45;;
62401;SDS011;48440;51.224;22.506;2023-02-10T07:17:59;22.55;;;11.52;;
62401;SDS011;48440;51.224;22.506;2023-02-10T07:20:25;26.40;;;12.57;;
62401;SDS011;48440;51.224;22.506;2023-02-10T07:22:50;21.85;;;11.77;;
62401;SDS011;48440;51.224;22.506;2023-02-10T07:25:16;20.15;;;11.75;;
62401;SDS011;48440;51.224;22.506;2023-02-10T07:27:42;22.40;;;11.80;;
62401;SDS011;48440;51.224;22.506;2023-02-10T07:30:08;24.40;;;12.00;;
62401;SDS011;48440;51.224;22.506;2023-02-10T07:32:36;22.83;;;11.80;;
62401;SDS011;48440;51.224;22.506;2023-02-10T07:35:06;24.65;;;11.75;;
62401;SDS011;48440;51.224;22.506;2023-02-10T07:37:32;22.25;;;12.10;;
62401;SDS011;48440;51.224;22.506;2023-02-10T07:39:58;25.17;;;11.82;;
62401;SDS011;48440;51.224;22.506;2023-02-10T07:42:23;23.25;;;11.75;;
62401;SDS011;48440;51.224;22.506;2023-02-10T07:44:48;23.27;;;12.23;;
62401;SDS011;48440;51.224;22.506;2023-02-10T07:47:14;23.13;;;12.40;;
62401;SDS011;48440;51.224;22.506;2023-02-10T07:49:39;20.83;;;11.40;;
62401;SDS011;48440;51.224;22.506;2023-02-10T07:52:05;20.83;;;12.20;;
62401;SDS011;48440;51.224;22.506;2023-02-10T07:54:30;25.80;;;12.00;;
62401;SDS011;48440;51.224;22.506;2023-02-10T07:56:56;21.65;;;11.95;;
62401;SDS011;48440;51.224;22.506;2023-02-10T07:59:21;23.38;;;12.95;;
62401;SDS011;48440;51.224;22.506;2023-02-10T08:01:47;26.33;;;13.45;;
62401;SDS011;48440;51.224;22.506;2023-02-10T08:04:12;26.45;;;13.38;;
62401;SDS011;48440;51.224;22.506;2023-02-10T08:06:38;27.48;;;12.85;;
62401;SDS011;48440;51.224;22.506;2023-02-10T08:09:04;21.80;;;12.57;;
62401;SDS011;48440;51.224;22.506;2023-02-10T08:11:30;25.92;;;13.07;;
62401;SDS011;48440;51.224;22.506;2023-02-10T08:13:56;21.92;;;12.13;;
62401;SDS011;48440;51.224;22.506;2023-02-10T08:16:21;20.10;;;11.88;;
62401;SDS011;48440;51.224;22.506;2023-02-10T08:18:47;23.33;;;12.70;;
62401;SDS011;48440;51.224;22.506;2023-02-10T08:21:12;20.05;;;10.98;;
62401;SDS011;48440;51.224;22.506;2023-02-10T08:23:38;18.50;;;11.27;;
62401;SDS011;48440;51.224;22.506;2023-02-10T08:26:04;22.80;;;11.25;;
62401;SDS011;48440;51.224;22.506;2023-02-10T08:28:30;22.42;;;11.90;;
62401;SDS011;48440;51.224;22.506;2023-02-10T08:31:00;23.77;;;12.18;;
62401;SDS011;48440;51.224;22.506;2023-02-10T08:33:26;23.70;;;12.77;;
62401;SDS011;48440;51.224;22.506;2023-02-10T08:35:52;21.38;;;12.50;;
62401;SDS011;48440;51.224;22.506;2023-02-10T08:38:17;22.13;;;12.82;;
62401;SDS011;48440;51.224;22.506;2023-02-10T08:40:42;21.48;;;12.00;;
62401;SDS011;48440;51.224;22.506;2023-02-10T08:43:08;21.10;;;11.55;;
62401;SDS011;48440;51.224;22.506;2023-02-10T08:45:33;21.48;;;11.77;;
62401;SDS011;48440;51.224;22.506;2023-02-10T08:47:59;20.27;;;11.20;;
62401;SDS011;48440;51.224;22.506;2023-02-10T08:50:26;22.38;;;12.27;;
62401;SDS011;48440;51.224;22.506;2023-02-10T08:52:51;23.15;;;11.43;;
62401;SDS011;48440;51.224;22.506;2023-02-10T08:55:17;22.52;;;12.45;;
62401;SDS011;48440;51.224;22.506;2023-02-10T08:57:43;19.55;;;11.00;;
62401;SDS011;48440;51.224;22.506;2023-02-10T09:00:08;20.60;;;11.52;;
62401;SDS011;48440;51.224;22.506;2023-02-10T09:02:34;20.10;;;11.25;;
62401;SDS011;48440;51.224;22.506;2023-02-10T09:05:01;19.05;;;10.88;;
62401;SDS011;48440;51.224;22.506;2023-02-10T09:07:26;20.20;;;11.82;;
62401;SDS011;48440;51.224;22.506;2023-02-10T09:09:52;20.63;;;10.55;;
62401;SDS011;48440;51.224;22.506;2023-02-10T09:12:18;19.23;;;10.65;;
62401;SDS011;48440;51.224;22.506;2023-02-10T09:14:43;21.70;;;10.50;;
62401;SDS011;48440;51.224;22.506;2023-02-10T09:17:09;19.55;;;10.02;;
62401;SDS011;48440;51.224;22.506;2023-02-10T09:19:36;15.38;;;9.10;;
62401;SDS011;48440;51.224;22.506;2023-02-10T09:22:02;17.85;;;10.63;;
62401;SDS011;48440;51.224;22.506;2023-02-10T09:24:29;18.27;;;10.23;;
62401;SDS011;48440;51.224;22.506;2023-02-10T09:26:54;18.67;;;10.27;;
62401;SDS011;48440;51.224;22.506;2023-02-10T09:29:20;20.52;;;10.32;;
62401;SDS011;48440;51.224;22.506;2023-02-10T09:31:45;18.10;;;10.13;;
62401;SDS011;48440;51.224;22.506;2023-02-10T09:34:11;16.58;;;10.15;;
62401;SDS011;48440;51.224;22.506;2023-02-10T09:36:36;22.08;;;10.48;;
62401;SDS011;48440;51.224;22.506;2023-02-10T09:39:02;16.48;;;9.77;;
62401;SDS011;48440;51.224;22.506;2023-02-10T09:55:16;16.60;;;9.90;;
62401;SDS011;48440;51.224;22.506;2023-02-10T09:58:10;18.02;;;9.50;;
62401;SDS011;48440;51.224;22.506;2023-02-10T10:00:46;16.92;;;10.30;;
62401;SDS011;48440;51.224;22.506;2023-02-10T10:03:17;16.92;;;9.40;;
62401;SDS011;48440;51.224;22.506;2023-02-10T10:05:55;16.33;;;9.60;;
62401;SDS011;48440;51.224;22.506;2023-02-10T10:10:56;18.20;;;9.20;;
62401;SDS011;48440;51.224;22.506;2023-02-10T10:13:27;21.33;;;10.88;;
62401;SDS011;48440;51.224;22.506;2023-02-10T10:18:48;17.92;;;9.82;;
62401;SDS011;48440;51.224;22.506;2023-02-10T10:24:41;20.55;;;10.35;;
62401;SDS011;48440;51.224;22.506;2023-02-10T10:29:53;17.33;;;9.48;;
62401;SDS011;48440;51.224;22.506;2023-02-10T10:32:26;17.42;;;10.68;;
62401;SDS011;48440;51.224;22.506;2023-02-10T10:35:02;17.33;;;10.43;;
62401;SDS011;48440;51.224;22.506;2023-02-10T10:37:30;19.95;;;9.90;;
62401;SDS011;48440;51.224;22.506;2023-02-10T10:40:00;18.65;;;10.85;;
62401;SDS011;48440;51.224;22.506;2023-02-10T10:43:02;19.80;;;10.75;;
62401;SDS011;48440;51.224;22.506;2023-02-10T10:48:19;21.38;;;10.98;;
62401;SDS011;48440;51.224;22.506;2023-02-10T10:50:51;18.42;;;11.40;;
62401;SDS011;48440;51.224;22.506;2023-02-10T10:53:31;20.70;;;12.18;;
62401;SDS011;48440;51.224;22.506;2023-02-10T10:56:06;16.90;;;10.63;;
62401;SDS011;48440;51.224;22.506;2023-02-10T10:58:39;20.13;;;11.07;;
62401;SDS011;48440;51.224;22.506;2023-02-10T11:01:07;21.63;;;11.90;;
62401;SDS011;48440;51.224;22.506;2023-02-10T11:03:33;23.38;;;12.63;;
62401;SDS011;48440;51.224;22.506;2023-02-10T11:08:37;19.02;;;12.13;;
62401;SDS011;48440;51.224;22.506;2023-02-10T11:11:07;22.05;;;12.50;;
62401;SDS011;48440;51.224;22.506;2023-02-10T11:13:37;21.65;;;12.90;;
62401;SDS011;48440;51.224;22.506;2023-02-10T11:16:12;20.80;;;12.63;;
62401;SDS011;48440;51.224;22.506;2023-02-10T11:18:55;21.70;;;12.45;;
62401;SDS011;48440;51.224;22.506;2023-02-10T11:21:36;21.08;;;13.07;;
62401;SDS011;48440;51.224;22.506;2023-02-10T11:24:03;21.95;;;13.32;;
62401;SDS011;48440;51.224;22.506;2023-02-10T11:26:52;22.73;;;13.40;;
62401;SDS011;48440;51.224;22.506;2023-02-10T11:29:39;21.30;;;12.60;;
62401;SDS011;48440;51.224;22.506;2023-02-10T11:32:32;20.80;;;12.23;;
62401;SDS011;48440;51.224;22.506;2023-02-10T11:35:01;23.40;;;12.68;;
62401;SDS011;48440;51.224;22.506;2023-02-10T11:37:33;21.65;;;11.93;;
62401;SDS011;48440;51.224;22.506;2023-02-10T11:40:03;22.23;;;12.07;;
62401;SDS011;48440;51.224;22.506;2023-02-10T11:42:50;19.35;;;12.13;;
62401;SDS011;48440;51.224;22.506;2023-02-10T11:45:22;21.45;;;12.73;;
62401;SDS011;48440;51.224;22.506;2023-02-10T11:47:59;22.60;;;12.45;;
62401;SDS011;48440;51.224;22.506;2023-02-10T11:50:34;21.98;;;11.52;;
62401;SDS011;48440;51.224;22.506;2023-02-10T11:53:01;22.10;;;12.20;;
62401;SDS011;48440;51.224;22.506;2023-02-10T11:55:33;23.15;;;12.18;;
62401;SDS011;48440;51.224;22.506;2023-02-10T12:21:18;18.73;;;11.85;;
62401;SDS011;48440;51.224;22.506;2023-02-10T12:32:43;17.17;;;10.85;;
62401;SDS011;48440;51.224;22.506;2023-02-10T12:52:39;18.35;;;10.27;;
62401;SDS011;48440;51.224;22.506;2023-02-10T13:00:14;15.98;;;9.77;;
62401;SDS011;48440;51.224;22.506;2023-02-10T13:05:28;20.65;;;10.13;;
62401;SDS011;48440;51.224;22.506;2023-02-10T13:07:59;19.23;;;9.60;;
62401;SDS011;48440;51.224;22.506;2023-02-10T13:13:07;14.57;;;9.23;;
62401;SDS011;48440;51.224;22.506;2023-02-10T13:15:39;16.65;;;9.20;;
62401;SDS011;48440;51.224;22.506;2023-02-10T13:18:29;14.88;;;8.80;;
62401;SDS011;48440;51.224;22.506;2023-02-10T13:30:11;14.57;;;8.30;;
62401;SDS011;48440;51.224;22.506;2023-02-10T13:33:03;16.30;;;9.45;;
62401;SDS011;48440;51.224;22.506;2023-02-10T13:35:40;14.55;;;8.32;;
62401;SDS011;48440;51.224;22.506;2023-02-10T13:38:08;12.70;;;7.95;;
62401;SDS011;48440;51.224;22.506;2023-02-10T13:40:51;14.30;;;8.43;;
62401;SDS011;48440;51.224;22.506;2023-02-10T13:43:39;14.80;;;8.10;;
62401;SDS011;48440;51.224;22.506;2023-02-10T13:46:05;11.07;;;7.35;;
62401;SDS011;48440;51.224;22.506;2023-02-10T13:48:40;13.75;;;7.80;;
62401;SDS011;48440;51.224;22.506;2023-02-10T13:51:09;13.85;;;8.18;;
62401;SDS011;48440;51.224;22.506;2023-02-10T13:58:48;12.57;;;8.63;;
62401;SDS011;48440;51.224;22.506;2023-02-10T14:04:02;16.05;;;9.18;;
62401;SDS011;48440;51.224;22.506;2023-02-10T14:06:33;17.40;;;8.93;;
62401;SDS011;48440;51.224;22.506;2023-02-10T14:09:16;15.13;;;8.80;;
62401;SDS011;48440;51.224;22.506;2023-02-10T14:11:43;14.40;;;8.75;;
62401;SDS011;48440;51.224;22.506;2023-02-10T14:14:16;17.30;;;9.00;;
62401;SDS011;48440;51.224;22.506;2023-02-10T14:16:45;16.63;;;8.57;;
62401;SDS011;48440;51.224;22.506;2023-02-10T14:19:22;12.82;;;7.95;;
62401;SDS011;48440;51.224;22.506;2023-02-10T14:21:53;16.40;;;8.35;;
62401;SDS011;48440;51.224;22.506;2023-02-10T14:24:23;15.82;;;9.05;;
62401;SDS011;48440;51.224;22.506;2023-02-10T14:26:53;15.02;;;8.13;;
62401;SDS011;48440;51.224;22.506;2023-02-10T14:29:21;14.98;;;8.93;;
62401;SDS011;48440;51.224;22.506;2023-02-10T14:31:49;12.63;;;7.72;;
62401;SDS011;48440;51.224;22.506;2023-02-10T14:34:22;16.10;;;8.40;;
62401;SDS011;48440;51.224;22.506;2023-02-10T14:37:00;15.65;;;8.32;;
62401;SDS011;48440;51.224;22.506;2023-02-10T14:39:37;18.95;;;8.60;;
62401;SDS011;48440;51.224;22.506;2023-02-10T14:42:03;13.77;;;8.73;;
62401;SDS011;48440;51.224;22.506;2023-02-10T14:44:39;16.83;;;9.05;;
62401;SDS011;48440;51.224;22.506;2023-02-10T14:47:19;16.73;;;8.98;;
62401;SDS011;48440;51.224;22.506;2023-02-10T14:49:51;16.30;;;9.07;;
62401;SDS011;48440;51.224;22.506;2023-02-10T14:52:34;16.88;;;10.23;;
62401;SDS011;48440;51.224;22.506;2023-02-10T14:57:57;14.90;;;9.07;;
62401;SDS011;48440;51.224;22.506;2023-02-10T15:00:28;17.58;;;9.60;;
62401;SDS011;48440;51.224;22.506;2023-02-10T15:02:58;15.40;;;10.20;;
62401;SDS011;48440;51.224;22.506;2023-02-10T15:05:26;22.77;;;10.10;;
62401;SDS011;48440;51.224;22.506;2023-02-10T15:07:56;16.88;;;9.57;;
62401;SDS011;48440;51.224;22.506;2023-02-10T15:10:27;19.10;;;10.73;;
62401;SDS011;48440;51.224;22.506;2023-02-10T15:12:54;20.67;;;10.85;;
62401;SDS011;48440;51.224;22.506;2023-02-10T15:15:32;20.52;;;10.65;;
62401;SDS011;48440;51.224;22.506;2023-02-10T15:18:02;18.70;;;10.48;;
62401;SDS011;48440;51.224;22.506;2023-02-10T15:20:33;19.48;;;11.10;;
62401;SDS011;48440;51.224;22.506;2023-02-10T15:28:20;19.65;;;10.68;;
62401;SDS011;48440;51.224;22.506;2023-02-10T15:33:40;19.33;;;9.98;;
62401;SDS011;48440;51.224;22.506;2023-02-10T15:39:01;19.48;;;11.02;;
62401;SDS011;48440;51.224;22.506;2023-02-10T15:44:01;21.45;;;11.02;;
62401;SDS011;48440;51.224;22.506;2023-02-10T15:46:29;20.17;;;11.10;;
62401;SDS011;48440;51.224;22.506;2023-02-10T15:49:11;18.65;;;11.23;;
62401;SDS011;48440;51.224;22.506;2023-02-10T15:51:42;19.65;;;10.70;;
62401;SDS011;48440;51.224;22.506;2023-02-10T15:54:14;19.58;;;10.63;;
62401;SDS011;48440;51.224;22.506;2023-02-10T15:56:41;19.08;;;11.05;;
62401;SDS011;48440;51.224;22.506;2023-02-10T15:59:14;15.30;;;9.85;;
62401;SDS011;48440;51.224;22.506;2023-02-10T16:04:06;17.88;;;9.73;;
62401;SDS011;48440;51.224;22.506;2023-02-10T16:06:31;20.08;;;10.57;;
62401;SDS011;48440;51.224;22.506;2023-02-10T16:08:57;16.25;;;9.45;;
62401;SDS011;48440;51.224;22.506;2023-02-10T16:11:22;18.15;;;10.07;;
62401;SDS011;48440;51.224;22.506;2023-02-10T16:13:48;18.40;;;10.13;;
62401;SDS011;48440;51.224;22.506;2023-02-10T16:16:14;17.48;;;10.07;;
62401;SDS011;48440;51.224;22.506;2023-02-10T16:18:41;18.08;;;10.23;;
62401;SDS011;48440;51.224;22.506;2023-02-10T16:21:08;23.80;;;11.05;;
62401;SDS011;48440;51.224;22.506;2023-02-10T16:23:36;23.15;;;11.32;;
62401;SDS011;48440;51.224;22.506;2023-02-10T16:26:01;19.65;;;10.80;;
62401;SDS011;48440;51.224;22.506;2023-02-10T16:28:27;23.85;;;10.70;;
62401;SDS011;48440;51.224;22.506;2023-02-10T16:30:52;18.92;;;10.73;;
62401;SDS011;48440;51.224;22.506;2023-02-10T16:33:18;18.00;;;10.30;;
62401;SDS011;48440;51.224;22.506;2023-02-10T16:35:43;17.70;;;9.82;;
62401;SDS011;48440;51.224;22.506;2023-02-10T16:38:09;14.77;;;9.90;;
62401;SDS011;48440;51.224;22.506;2023-02-10T16:40:36;18.02;;;10.48;;
62401;SDS011;48440;51.224;22.506;2023-02-10T16:43:04;18.98;;;10.30;;
62401;SDS011;48440;51.224;22.506;2023-02-10T16:45:30;18.10;;;10.38;;